Rickmers New Orleans — V7FF2 — position and weather

sailwx.info

Track history (hours):
 
Tides and Currents Weather Stations Pressure Air Temp Water Temp Dewpoint Dewpoint Depression Visibility Wind Speed Wind Dir Waves Ship Positions

Rickmers New Orleans

Last reported at 2015-May-29 03:33 UTC. Time now 2015-May-29 04:17 UTC.
Position N 31°21' E 121°40'.

Length 192.9 m; beam 27.8 m; draft 11.2 m.

Type: Ship (hazmat cat A). MMSI: 538001922.

Date/timePositionNaut miles runAvg speedWind from/ knotsBaromVisibWave heightAir tempDewpointWater temp
2015-May-29 03:33N 31°21' E 121°40'1110.6
2015-May-29 02:34N 31°16' E 121°52'48 1.1
2015-May-27 07:19N 31°07' E 122°47'52 5.8
2015-May-26 22:28N 31°05' E 123°47'4 0.5
2015-May-26 13:06N 31°04' E 123°52'0 0.7
2015-May-26 12:31N 31°04' E 123°52'1 0.5
2015-May-26 11:24N 31°05' E 123°51'1 0.4
2015-May-26 09:33N 31°04' E 123°51'4 4.1
2015-May-26 08:33N 31°04' E 123°46'1712.7
2015-May-26 07:11N 31°05' E 123°26'812.4
2015-May-26 06:33N 31°05' E 123°17'1312.4
2015-May-26 05:33N 31°05' E 123°02'1212.3
2015-May-26 04:33N 31°06' E 122°48'1312.7
2015-May-26 03:32N 31°05' E 122°33'10 9.7
2015-May-26 02:33N 31°06' E 122°22'1413.6
2015-May-26 01:34N 31°12' E 122°08'1414.4
2015-May-26 00:33N 31°16' E 121°52'1313.0
2015-May-25 23:33N 31°22' E 121°38'1211.5
2015-May-25 22:33N 31°28' E 121°27'4 3.4
2015-May-25 21:30N 31°30' E 121°23'0 0.0
2015-May-25 20:33N 31°30' E 121°23'0 0.0
2015-May-25 19:30N 31°30' E 121°23'0 0.0
2015-May-25 18:30N 31°30' E 121°23'0 0.0
2015-May-25 17:33N 31°30' E 121°23'0 0.0
2015-May-25 16:30N 31°30' E 121°23'0 0.0
2015-May-25 15:33N 31°30' E 121°23'0 0.0
2015-May-25 14:27N 31°30' E 121°23'0 0.0
2015-May-25 13:30N 31°30' E 121°23'0 0.0
2015-May-25 12:30N 31°30' E 121°23'0 0.0
2015-May-25 11:33N 31°30' E 121°23'0 0.0
2015-May-25 10:33N 31°30' E 121°23'0 0.0
2015-May-25 09:30N 31°30' E 121°23'0 0.0
2015-May-25 08:12N 31°30' E 121°23'0 0.0
2015-May-25 07:33N 31°30' E 121°23'0 0.0
2015-May-25 06:27N 31°30' E 121°23'0 0.0
2015-May-25 05:30N 31°30' E 121°23'0 0.0
2015-May-25 04:33N 31°30' E 121°23'0 0.0
2015-May-25 03:33N 31°30' E 121°23'0 0.0
2015-May-25 02:27N 31°30' E 121°23'0 0.0
2015-May-25 01:33N 31°30' E 121°23'0 0.0
2015-May-25 00:27N 31°30' E 121°23'0 0.0
2015-May-24 23:27N 31°30' E 121°23'0 0.0
2015-May-24 22:30N 31°30' E 121°23'0 0.0
2015-May-24 21:30N 31°30' E 121°23'0 0.0
2015-May-24 20:30N 31°30' E 121°23'0 0.0
2015-May-24 19:33N 31°30' E 121°23'0 0.0
2015-May-24 18:24N 31°30' E 121°23'0 0.0
2015-May-24 17:30N 31°30' E 121°23'0 0.0
2015-May-24 16:30N 31°30' E 121°23'0 0.0
2015-May-24 15:30N 31°30' E 121°23'0 0.0
2015-May-24 14:30N 31°30' E 121°23'0 0.0
2015-May-24 13:33N 31°30' E 121°23'0 0.0
2015-May-24 12:33N 31°30' E 121°23'0 0.0
2015-May-24 11:33N 31°30' E 121°23'0 0.0
2015-May-24 10:33N 31°30' E 121°23'0 0.0
2015-May-24 09:30N 31°30' E 121°23'0 0.0
2015-May-24 08:24N 31°30' E 121°23'0 0.0
2015-May-24 07:30N 31°30' E 121°23'0 0.0
2015-May-24 06:30N 31°30' E 121°23'0 0.0
2015-May-24 05:21N 31°30' E 121°23'0 0.0
2015-May-24 04:30N 31°30' E 121°23'0 0.0
2015-May-24 03:33N 31°30' E 121°23'0 0.0
2015-May-24 02:33N 31°30' E 121°23'0 0.0
2015-May-24 01:33N 31°30' E 121°23'0 0.0
2015-May-24 00:33N 31°30' E 121°23'0 0.0
2015-May-23 23:33N 31°30' E 121°23'0 0.0
2015-May-23 22:30N 31°30' E 121°23'0 0.0
2015-May-23 21:33N 31°30' E 121°23'0 0.0
2015-May-23 20:30N 31°30' E 121°23'0 0.0
2015-May-23 19:33N 31°30' E 121°23'0 0.0
2015-May-23 18:33N 31°30' E 121°23'0 0.0
2015-May-23 17:27N 31°30' E 121°23'0 0.0
2015-May-23 16:30N 31°30' E 121°23'0 0.0
2015-May-23 15:30N 31°30' E 121°23'0 0.0
2015-May-23 14:33N 31°30' E 121°23'0 0.0
2015-May-23 13:24N 31°30' E 121°23'0 0.0
2015-May-23 12:33N 31°30' E 121°23'0 0.0
2015-May-23 11:27N 31°30' E 121°23'0 0.0
2015-May-23 10:30N 31°30' E 121°23'0 0.0
2015-May-23 09:33N 31°30' E 121°23'0 0.0
2015-May-23 08:33N 31°30' E 121°23'0 0.0
2015-May-23 07:33N 31°30' E 121°23'0 0.0
2015-May-23 06:33N 31°30' E 121°23'0 0.0
2015-May-23 05:33N 31°30' E 121°23'0 0.0
2015-May-23 04:33N 31°30' E 121°23'0 0.0
2015-May-23 03:33N 31°30' E 121°23'0 0.0
2015-May-23 02:33N 31°30' E 121°23'0 0.0
2015-May-23 01:30N 31°30' E 121°23'0 0.0
2015-May-23 00:33N 31°30' E 121°23'0 0.0
2015-May-22 23:33N 31°30' E 121°23'0 0.0
2015-May-22 22:33N 31°30' E 121°23'0 0.0
2015-May-22 21:30N 31°30' E 121°23'0 0.0
2015-May-22 20:33N 31°30' E 121°23'0 0.0
2015-May-22 19:33N 31°30' E 121°23'0 0.0
2015-May-22 18:33N 31°30' E 121°23'0 0.0
2015-May-22 17:30N 31°30' E 121°23'0 0.1
2015-May-22 16:33N 31°30' E 121°23'0 0.0
2015-May-22 15:30N 31°30' E 121°23'0 0.0
2015-May-22 14:30N 31°30' E 121°23'0 0.0
2015-May-22 13:33N 31°30' E 121°23'0 0.0
2015-May-22 12:33N 31°30' E 121°23'0 0.0
2015-May-22 11:33N 31°30' E 121°23'0 0.0
2015-May-22 10:30N 31°30' E 121°23'0 0.0
2015-May-22 09:33N 31°30' E 121°23'0 0.0
2015-May-22 08:33N 31°30' E 121°23'0 0.0
2015-May-22 07:33N 31°30' E 121°23'0 0.0
2015-May-22 06:33N 31°30' E 121°23'0 0.0
2015-May-22 05:33N 31°30' E 121°23'0 0.0
2015-May-22 04:33N 31°30' E 121°23'0 0.0
2015-May-22 03:33N 31°30' E 121°23'0 0.0
2015-May-22 02:30N 31°30' E 121°23'0 0.0
2015-May-22 01:33N 31°30' E 121°23'0 0.0
2015-May-22 00:33N 31°30' E 121°23'0 0.0
2015-May-21 23:33N 31°30' E 121°23'0 0.0
2015-May-21 22:33N 31°30' E 121°23'0 0.0
2015-May-21 21:30N 31°30' E 121°23'0 0.0
2015-May-21 20:33N 31°30' E 121°23'0 0.0
2015-May-21 19:30N 31°30' E 121°23'2 2.3
2015-May-21 18:33N 31°32' E 121°22'1010.3
2015-May-21 17:33N 31°25' E 121°31'1110.8
2015-May-21 16:33N 31°20' E 121°42'1010.4
2015-May-21 15:33N 31°16' E 121°53'1010.3
2015-May-21 14:33N 31°14' E 122°05'9 9.4
2015-May-21 13:33N 31°09' E 122°14'11 9.8
2015-May-21 12:25N 31°07' E 122°27'9 0.5
2015-May-20 17:05N 31°10' E 122°37'0 0.0
2015-May-20 14:26N 31°10' E 122°37'0 0.0
2015-May-20 09:08N 31°10' E 122°37'0 0.0
2015-May-20 08:26N 31°10' E 122°37'0 0.1
2015-May-20 07:29N 31°10' E 122°37'0 0.2
2015-May-20 06:29N 31°10' E 122°37'0 0.1
2015-May-20 05:26N 31°11' E 122°37'0 0.1
2015-May-20 04:32N 31°11' E 122°37'7 7.4
2015-May-20 03:32N 31°07' E 122°44'1313.4
2015-May-20 02:33N 31°06' E 122°59'1413.7
2015-May-20 01:33N 31°06' E 123°15'8313.1
2015-May-19 19:12N 31°03' E 124°53'3612.5
2015-May-19 16:20N 31°02' E 125°34'1012.7
2015-May-19 15:33N 31°02' E 125°46'2912.9
2015-May-19 13:16N 31°01' E 126°20'  
Track history (hours):
 
Tides and Currents Weather Stations Pressure Air Temp Water Temp Dewpoint Dewpoint Depression Visibility Wind Speed Wind Dir Waves Ship Positions

Rickmers New Orleans

Last reported at 2015-May-29 03:33 UTC. Time now 2015-May-29 04:17 UTC.
Position N 31°21' E 121°40'.

Length 192.9 m; beam 27.8 m; draft 11.2 m.

Type: Ship (hazmat cat A). MMSI: 538001922.

Date/timePositionNaut miles runAvg speedWind from/ knotsBaromVisibWave heightAir tempDewpointWater temp
2015-May-29 03:33N 31°21' E 121°40'1110.6
2015-May-29 02:34N 31°16' E 121°52'48 1.1
2015-May-27 07:19N 31°07' E 122°47'52 5.8
2015-May-26 22:28N 31°05' E 123°47'4 0.5
2015-May-26 13:06N 31°04' E 123°52'0 0.7
2015-May-26 12:31N 31°04' E 123°52'1 0.5
2015-May-26 11:24N 31°05' E 123°51'1 0.4
2015-May-26 09:33N 31°04' E 123°51'4 4.1
2015-May-26 08:33N 31°04' E 123°46'1712.7
2015-May-26 07:11N 31°05' E 123°26'812.4
2015-May-26 06:33N 31°05' E 123°17'1312.4
2015-May-26 05:33N 31°05' E 123°02'1212.3
2015-May-26 04:33N 31°06' E 122°48'1312.7
2015-May-26 03:32N 31°05' E 122°33'10 9.7
2015-May-26 02:33N 31°06' E 122°22'1413.6
2015-May-26 01:34N 31°12' E 122°08'1414.4
2015-May-26 00:33N 31°16' E 121°52'1313.0
2015-May-25 23:33N 31°22' E 121°38'1211.5
2015-May-25 22:33N 31°28' E 121°27'4 3.4
2015-May-25 21:30N 31°30' E 121°23'0 0.0
2015-May-25 20:33N 31°30' E 121°23'0 0.0
2015-May-25 19:30N 31°30' E 121°23'0 0.0
2015-May-25 18:30N 31°30' E 121°23'0 0.0
2015-May-25 17:33N 31°30' E 121°23'0 0.0
2015-May-25 16:30N 31°30' E 121°23'0 0.0
2015-May-25 15:33N 31°30' E 121°23'0 0.0
2015-May-25 14:27N 31°30' E 121°23'0 0.0
2015-May-25 13:30N 31°30' E 121°23'0 0.0
2015-May-25 12:30N 31°30' E 121°23'0 0.0
2015-May-25 11:33N 31°30' E 121°23'0 0.0
2015-May-25 10:33N 31°30' E 121°23'0 0.0
2015-May-25 09:30N 31°30' E 121°23'0 0.0
2015-May-25 08:12N 31°30' E 121°23'0 0.0
2015-May-25 07:33N 31°30' E 121°23'0 0.0
2015-May-25 06:27N 31°30' E 121°23'0 0.0
2015-May-25 05:30N 31°30' E 121°23'0 0.0
2015-May-25 04:33N 31°30' E 121°23'0 0.0
2015-May-25 03:33N 31°30' E 121°23'0 0.0
2015-May-25 02:27N 31°30' E 121°23'0 0.0
2015-May-25 01:33N 31°30' E 121°23'0 0.0
2015-May-25 00:27N 31°30' E 121°23'0 0.0
2015-May-24 23:27N 31°30' E 121°23'0 0.0
2015-May-24 22:30N 31°30' E 121°23'0 0.0
2015-May-24 21:30N 31°30' E 121°23'0 0.0
2015-May-24 20:30N 31°30' E 121°23'0 0.0
2015-May-24 19:33N 31°30' E 121°23'0 0.0
2015-May-24 18:24N 31°30' E 121°23'0 0.0
2015-May-24 17:30N 31°30' E 121°23'0 0.0
2015-May-24 16:30N 31°30' E 121°23'0 0.0
2015-May-24 15:30N 31°30' E 121°23'0 0.0
2015-May-24 14:30N 31°30' E 121°23'0 0.0
2015-May-24 13:33N 31°30' E 121°23'0 0.0
2015-May-24 12:33N 31°30' E 121°23'0 0.0
2015-May-24 11:33N 31°30' E 121°23'0 0.0
2015-May-24 10:33N 31°30' E 121°23'0 0.0
2015-May-24 09:30N 31°30' E 121°23'0 0.0
2015-May-24 08:24N 31°30' E 121°23'0 0.0
2015-May-24 07:30N 31°30' E 121°23'0 0.0
2015-May-24 06:30N 31°30' E 121°23'0 0.0
2015-May-24 05:21N 31°30' E 121°23'0 0.0
2015-May-24 04:30N 31°30' E 121°23'0 0.0
2015-May-24 03:33N 31°30' E 121°23'0 0.0
2015-May-24 02:33N 31°30' E 121°23'0 0.0
2015-May-24 01:33N 31°30' E 121°23'0 0.0
2015-May-24 00:33N 31°30' E 121°23'0 0.0
2015-May-23 23:33N 31°30' E 121°23'0 0.0
2015-May-23 22:30N 31°30' E 121°23'0 0.0
2015-May-23 21:33N 31°30' E 121°23'0 0.0
2015-May-23 20:30N 31°30' E 121°23'0 0.0
2015-May-23 19:33N 31°30' E 121°23'0 0.0
2015-May-23 18:33N 31°30' E 121°23'0 0.0
2015-May-23 17:27N 31°30' E 121°23'0 0.0
2015-May-23 16:30N 31°30' E 121°23'0 0.0
2015-May-23 15:30N 31°30' E 121°23'0 0.0
2015-May-23 14:33N 31°30' E 121°23'0 0.0
2015-May-23 13:24N 31°30' E 121°23'0 0.0
2015-May-23 12:33N 31°30' E 121°23'0 0.0
2015-May-23 11:27N 31°30' E 121°23'0 0.0
2015-May-23 10:30N 31°30' E 121°23'0 0.0
2015-May-23 09:33N 31°30' E 121°23'0 0.0
2015-May-23 08:33N 31°30' E 121°23'0 0.0
2015-May-23 07:33N 31°30' E 121°23'0 0.0
2015-May-23 06:33N 31°30' E 121°23'0 0.0
2015-May-23 05:33N 31°30' E 121°23'0 0.0
2015-May-23 04:33N 31°30' E 121°23'0 0.0
2015-May-23 03:33N 31°30' E 121°23'0 0.0
2015-May-23 02:33N 31°30' E 121°23'0 0.0
2015-May-23 01:30N 31°30' E 121°23'0 0.0
2015-May-23 00:33N 31°30' E 121°23'0 0.0
2015-May-22 23:33N 31°30' E 121°23'0 0.0
2015-May-22 22:33N 31°30' E 121°23'0 0.0
2015-May-22 21:30N 31°30' E 121°23'0 0.0
2015-May-22 20:33N 31°30' E 121°23'0 0.0
2015-May-22 19:33N 31°30' E 121°23'0 0.0
2015-May-22 18:33N 31°30' E 121°23'0 0.0
2015-May-22 17:30N 31°30' E 121°23'0 0.1
2015-May-22 16:33N 31°30' E 121°23'0 0.0
2015-May-22 15:30N 31°30' E 121°23'0 0.0
2015-May-22 14:30N 31°30' E 121°23'0 0.0
2015-May-22 13:33N 31°30' E 121°23'0 0.0
2015-May-22 12:33N 31°30' E 121°23'0 0.0
2015-May-22 11:33N 31°30' E 121°23'0 0.0
2015-May-22 10:30N 31°30' E 121°23'0 0.0
2015-May-22 09:33N 31°30' E 121°23'0 0.0
2015-May-22 08:33N 31°30' E 121°23'0 0.0
2015-May-22 07:33N 31°30' E 121°23'0 0.0
2015-May-22 06:33N 31°30' E 121°23'0 0.0
2015-May-22 05:33N 31°30' E 121°23'0 0.0
2015-May-22 04:33N 31°30' E 121°23'0 0.0
2015-May-22 03:33N 31°30' E 121°23'0 0.0
2015-May-22 02:30N 31°30' E 121°23'0 0.0
2015-May-22 01:33N 31°30' E 121°23'0 0.0
2015-May-22 00:33N 31°30' E 121°23'0 0.0
2015-May-21 23:33N 31°30' E 121°23'0 0.0
2015-May-21 22:33N 31°30' E 121°23'0 0.0
2015-May-21 21:30N 31°30' E 121°23'0 0.0
2015-May-21 20:33N 31°30' E 121°23'0 0.0
2015-May-21 19:30N 31°30' E 121°23'2 2.3
2015-May-21 18:33N 31°32' E 121°22'1010.3
2015-May-21 17:33N 31°25' E 121°31'1110.8
2015-May-21 16:33N 31°20' E 121°42'1010.4
2015-May-21 15:33N 31°16' E 121°53'1010.3
2015-May-21 14:33N 31°14' E 122°05'9 9.4
2015-May-21 13:33N 31°09' E 122°14'11 9.8
2015-May-21 12:25N 31°07' E 122°27'9 0.5
2015-May-20 17:05N 31°10' E 122°37'0 0.0
2015-May-20 14:26N 31°10' E 122°37'0 0.0
2015-May-20 09:08N 31°10' E 122°37'0 0.0
2015-May-20 08:26N 31°10' E 122°37'0 0.1
2015-May-20 07:29N 31°10' E 122°37'0 0.2
2015-May-20 06:29N 31°10' E 122°37'0 0.1
2015-May-20 05:26N 31°11' E 122°37'0 0.1
2015-May-20 04:32N 31°11' E 122°37'7 7.4
2015-May-20 03:32N 31°07' E 122°44'1313.4
2015-May-20 02:33N 31°06' E 122°59'1413.7
2015-May-20 01:33N 31°06' E 123°15'8313.1
2015-May-19 19:12N 31°03' E 124°53'3612.5
2015-May-19 16:20N 31°02' E 125°34'1012.7
2015-May-19 15:33N 31°02' E 125°46'2912.9
2015-May-19 13:16N 31°01' E 126°20'  

Dump ship's entire track history